sensor_id;sensor_type;location;lat;lon;timestamp;pressure;altitude;pressure_sealevel;temperature;humidity
50684;BME280;36654;45.042;38.994;2023-10-08T00:01:08;101051.09;;;16.31;60.27
50684;BME280;36654;45.042;38.994;2023-10-08T00:03:38;101041.28;;;16.30;60.19
50684;BME280;36654;45.042;38.994;2023-10-08T00:06:05;101038.66;;;16.27;60.10
50684;BME280;36654;45.042;38.994;2023-10-08T00:08:33;101036.88;;;16.26;60.16
50684;BME280;36654;45.042;38.994;2023-10-08T00:10:58;101052.91;;;16.29;60.16
50684;BME280;36654;45.042;38.994;2023-10-08T00:13:31;101027.00;;;16.35;60.12
50684;BME280;36654;45.042;38.994;2023-10-08T00:15:57;101038.59;;;16.36;59.76
50684;BME280;36654;45.042;38.994;2023-10-08T00:18:22;101048.41;;;16.35;59.75
50684;BME280;36654;45.042;38.994;2023-10-08T00:20:51;101035.88;;;16.41;59.64
50684;BME280;36654;45.042;38.994;2023-10-08T00:23:35;101027.91;;;16.30;59.66
50684;BME280;36654;45.042;38.994;2023-10-08T00:26:01;100997.72;;;16.15;59.53
50684;BME280;36654;45.042;38.994;2023-10-08T00:28:30;101013.59;;;16.37;59.61
50684;BME280;36654;45.042;38.994;2023-10-08T00:31:05;101010.91;;;16.37;59.26
50684;BME280;36654;45.042;38.994;2023-10-08T00:33:36;101014.50;;;16.37;59.61
50684;BME280;36654;45.042;38.994;2023-10-08T00:36:02;101017.16;;;16.39;59.41
50684;BME280;36654;45.042;38.994;2023-10-08T00:38:43;100976.25;;;16.25;59.19
50684;BME280;36654;45.042;38.994;2023-10-08T00:41:13;101011.88;;;16.33;59.06
50684;BME280;36654;45.042;38.994;2023-10-08T00:43:42;101001.97;;;16.41;58.97
50684;BME280;36654;45.042;38.994;2023-10-08T00:46:10;100964.69;;;16.20;58.90
50684;BME280;36654;45.042;38.994;2023-10-08T00:48:53;100997.47;;;16.46;58.74
50684;BME280;36654;45.042;38.994;2023-10-08T00:51:24;100998.38;;;16.45;58.66
50684;BME280;36654;45.042;38.994;2023-10-08T00:53:54;100976.97;;;16.45;58.75
50684;BME280;36654;45.042;38.994;2023-10-08T00:56:29;100994.78;;;16.45;58.63
50684;BME280;36654;45.042;38.994;2023-10-08T00:59:13;100997.47;;;16.46;58.62
50684;BME280;36654;45.042;38.994;2023-10-08T01:01:43;100976.94;;;16.48;58.58
50684;BME280;36654;45.042;38.994;2023-10-08T01:04:19;100979.63;;;16.48;58.47
50684;BME280;36654;45.042;38.994;2023-10-08T01:06:53;100974.31;;;16.44;58.42
50684;BME280;36654;45.042;38.994;2023-10-08T01:09:28;100984.94;;;16.51;58.19
50684;BME280;36654;45.042;38.994;2023-10-08T01:12:18;100951.91;;;16.52;57.95
50684;BME280;36654;45.042;38.994;2023-10-08T01:15:00;100967.97;;;16.52;58.33
50684;BME280;36654;45.042;38.994;2023-10-08T01:17:38;100967.97;;;16.54;58.04
50684;BME280;36654;45.042;38.994;2023-10-08T01:20:15;100975.09;;;16.55;57.87
50684;BME280;36654;45.042;38.994;2023-10-08T01:23:05;100963.47;;;16.57;57.92
50684;BME280;36654;45.042;38.994;2023-10-08T01:25:42;100951.00;;;16.56;57.94
50684;BME280;36654;45.042;38.994;2023-10-08T01:28:08;100947.44;;;16.57;57.93
50684;BME280;36654;45.042;38.994;2023-10-08T01:30:39;100938.53;;;16.52;57.78
50684;BME280;36654;45.042;38.994;2023-10-08T01:33:08;100930.41;;;16.61;57.77
50684;BME280;36654;45.042;38.994;2023-10-08T01:35:37;100908.28;;;16.44;57.83
50684;BME280;36654;45.042;38.994;2023-10-08T01:38:03;100940.19;;;16.66;57.53
50684;BME280;36654;45.042;38.994;2023-10-08T01:40:29;100935.72;;;16.65;57.73
50684;BME280;36654;45.042;38.994;2023-10-08T01:42:56;100933.97;;;16.65;57.54
50684;BME280;36654;45.042;38.994;2023-10-08T01:45:30;100897.59;;;16.44;57.77
50684;BME280;36654;45.042;38.994;2023-10-08T01:47:57;100918.88;;;16.56;57.42
50684;BME280;36654;45.042;38.994;2023-10-08T01:50:23;100923.34;;;16.56;57.50
50684;BME280;36654;45.042;38.994;2023-10-08T01:52:55;100886.94;;;16.39;57.52
50684;BME280;36654;45.042;38.994;2023-10-08T01:55:21;100915.28;;;16.60;57.62
50684;BME280;36654;45.042;38.994;2023-10-08T01:57:49;100880.75;;;16.36;57.40
50684;BME280;36654;45.042;38.994;2023-10-08T02:00:17;100897.59;;;16.44;57.73
50684;BME280;36654;45.042;38.994;2023-10-08T02:02:46;100918.78;;;16.66;57.60
50684;BME280;36654;45.042;38.994;2023-10-08T02:05:12;100933.03;;;16.68;57.51
50684;BME280;36654;45.042;38.994;2023-10-08T02:07:41;100907.19;;;16.65;57.48
50684;BME280;36654;45.042;38.994;2023-10-08T02:10:07;100919.63;;;16.71;57.50
50684;BME280;36654;45.042;38.994;2023-10-08T02:12:37;100922.34;;;16.68;57.62
50684;BME280;36654;45.042;38.994;2023-10-08T02:15:03;100923.16;;;16.73;57.49
50684;BME280;36654;45.042;38.994;2023-10-08T02:17:28;100919.63;;;16.69;57.77
50684;BME280;36654;45.042;38.994;2023-10-08T02:19:54;100899.03;;;16.76;57.71
50684;BME280;36654;45.042;38.994;2023-10-08T02:22:20;100917.78;;;16.77;57.71
50684;BME280;36654;45.042;38.994;2023-10-08T02:24:46;100910.66;;;16.78;57.57
50684;BME280;36654;45.042;38.994;2023-10-08T02:27:13;100898.97;;;16.82;57.67
50684;BME280;36654;45.042;38.994;2023-10-08T02:29:40;100868.84;;;16.63;57.86
50684;BME280;36654;45.042;38.994;2023-10-08T02:32:07;100880.28;;;16.76;57.89
50684;BME280;36654;45.042;38.994;2023-10-08T02:34:33;100892.69;;;16.88;57.87
50684;BME280;36654;45.042;38.994;2023-10-08T02:37:01;100862.53;;;16.67;57.77
50684;BME280;36654;45.042;38.994;2023-10-08T02:39:29;100808.50;;;16.37;57.88
50684;BME280;36654;45.042;38.994;2023-10-08T02:41:56;100873.94;;;16.86;57.84
50684;BME280;36654;45.042;38.994;2023-10-08T02:44:25;100887.25;;;16.92;57.88
50684;BME280;36654;45.042;38.994;2023-10-08T02:46:51;100847.38;;;16.68;57.94
50684;BME280;36654;45.042;38.994;2023-10-08T02:49:21;100875.69;;;16.90;57.89
50684;BME280;36654;45.042;38.994;2023-10-08T02:51:54;100870.28;;;16.93;57.91
50684;BME280;36654;45.042;38.994;2023-10-08T02:54:22;100859.59;;;16.93;58.24
50684;BME280;36654;45.042;38.994;2023-10-08T02:56:58;100860.47;;;16.95;58.08
50684;BME280;36654;45.042;38.994;2023-10-08T02:59:31;100852.44;;;16.95;58.13
50684;BME280;36654;45.042;38.994;2023-10-08T03:02:15;100854.19;;;16.96;58.15
50684;BME280;36654;45.042;38.994;2023-10-08T03:04:48;100862.22;;;16.96;58.66
50684;BME280;36654;45.042;38.994;2023-10-08T03:07:17;100851.59;;;16.90;58.61
50684;BME280;36654;45.042;38.994;2023-10-08T03:10:11;100842.59;;;16.94;58.51
50684;BME280;36654;45.042;38.994;2023-10-08T03:12:47;100839.03;;;16.94;58.79
50684;BME280;36654;45.042;38.994;2023-10-08T03:15:14;100836.41;;;16.89;58.75
50684;BME280;36654;45.042;38.994;2023-10-08T03:18:00;100811.66;;;16.70;58.75
50684;BME280;36654;45.042;38.994;2023-10-08T03:20:38;100818.66;;;16.85;58.99
50684;BME280;36654;45.042;38.994;2023-10-08T03:23:08;100835.50;;;16.93;58.95
50684;BME280;36654;45.042;38.994;2023-10-08T03:25:57;100824.00;;;16.85;59.37
50684;BME280;36654;45.042;38.994;2023-10-08T03:28:29;100825.66;;;16.92;59.28
50684;BME280;36654;45.042;38.994;2023-10-08T03:30:55;100841.72;;;16.92;59.34
50684;BME280;36654;45.042;38.994;2023-10-08T03:33:31;100837.31;;;16.90;59.29
50684;BME280;36654;45.042;38.994;2023-10-08T03:36:03;100830.19;;;16.90;59.38
50684;BME280;36654;45.042;38.994;2023-10-08T03:39:01;100815.97;;;16.85;59.37
50684;BME280;36654;45.042;38.994;2023-10-08T03:41:38;100832.00;;;16.88;59.69
50684;BME280;36654;45.042;38.994;2023-10-08T03:44:06;100795.53;;;16.78;59.53
50684;BME280;36654;45.042;38.994;2023-10-08T03:46:38;100830.59;;;17.23;58.80
50684;BME280;36654;45.042;38.994;2023-10-08T03:49:12;100830.31;;;17.41;58.64
50684;BME280;36654;45.042;38.994;2023-10-08T03:51:47;100836.47;;;17.48;58.06
50684;BME280;36654;45.042;38.994;2023-10-08T03:54:16;100794.34;;;17.56;57.70
50684;BME280;36654;45.042;38.994;2023-10-08T03:56:44;100784.06;;;17.84;56.97
50684;BME280;36654;45.042;38.994;2023-10-08T03:59:17;100711.84;;;17.72;56.04
50684;BME280;36654;45.042;38.994;2023-10-08T04:01:55;100801.53;;;18.53;55.01
50684;BME280;36654;45.042;38.994;2023-10-08T04:04:24;100817.28;;;18.70;54.71
50684;BME280;36654;45.042;38.994;2023-10-08T04:07:10;100818.75;;;18.87;54.04
50684;BME280;36654;45.042;38.994;2023-10-08T04:10:00;100781.13;;;18.87;53.63
50684;BME280;36654;45.042;38.994;2023-10-08T04:12:46;100805.41;;;19.23;52.83
50684;BME280;36654;45.042;38.994;2023-10-08T04:15:16;100773.94;;;18.89;53.11
50684;BME280;36654;45.042;38.994;2023-10-08T04:17:42;100807.09;;;18.88;53.64
50684;BME280;36654;45.042;38.994;2023-10-08T04:20:12;100808.38;;;18.68;54.43
50684;BME280;36654;45.042;38.994;2023-10-08T04:23:02;100753.13;;;18.13;55.13
50684;BME280;36654;45.042;38.994;2023-10-08T04:25:31;100808.13;;;18.37;55.58
50684;BME280;36654;45.042;38.994;2023-10-08T04:27:58;100790.53;;;18.21;56.26
50684;BME280;36654;45.042;38.994;2023-10-08T04:30:36;100821.88;;;18.20;56.44
50684;BME280;36654;45.042;38.994;2023-10-08T04:33:03;100804.91;;;18.18;56.55
50684;BME280;36654;45.042;38.994;2023-10-08T04:35:35;100829.91;;;18.20;56.55
50684;BME280;36654;45.042;38.994;2023-10-08T04:38:23;100823.63;;;18.21;56.97
50684;BME280;36654;45.042;38.994;2023-10-08T04:40:51;100806.66;;;18.19;56.94
50684;BME280;36654;45.042;38.994;2023-10-08T04:43:19;100819.13;;;18.22;57.08
50684;BME280;36654;45.042;38.994;2023-10-08T04:45:51;100764.09;;;18.01;56.81
50684;BME280;36654;45.042;38.994;2023-10-08T04:48:17;100797.66;;;18.23;57.11
50684;BME280;36654;45.042;38.994;2023-10-08T04:50:49;100805.53;;;18.32;56.97
50684;BME280;36654;45.042;38.994;2023-10-08T04:53:34;100792.03;;;18.36;57.19
50684;BME280;36654;45.042;38.994;2023-10-08T04:56:08;100800.09;;;18.36;57.05
50684;BME280;36654;45.042;38.994;2023-10-08T04:58:44;100791.13;;;18.37;57.03
50684;BME280;36654;45.042;38.994;2023-10-08T05:01:14;100750.22;;;18.24;57.10
50684;BME280;36654;45.042;38.994;2023-10-08T05:03:51;100789.06;;;18.49;56.89
50684;BME280;36654;45.042;38.994;2023-10-08T05:06:27;100797.91;;;18.54;57.17
50684;BME280;36654;45.042;38.994;2023-10-08T05:09:10;100792.50;;;18.56;57.18
50684;BME280;36654;45.042;38.994;2023-10-08T05:11:36;100753.53;;;18.37;57.38
50684;BME280;36654;45.042;38.994;2023-10-08T05:14:23;100784.38;;;18.61;57.08
50684;BME280;36654;45.042;38.994;2023-10-08T05:17:03;100809.13;;;18.77;57.23
50684;BME280;36654;45.042;38.994;2023-10-08T05:19:38;100776.00;;;18.74;57.02
50684;BME280;36654;45.042;38.994;2023-10-08T05:22:11;100808.66;;;18.98;56.81
50684;BME280;36654;45.042;38.994;2023-10-08T05:24:47;100792.28;;;19.09;56.71
50684;BME280;36654;45.042;38.994;2023-10-08T05:27:36;100801.09;;;19.15;56.38
50684;BME280;36654;45.042;38.994;2023-10-08T05:30:23;100789.38;;;19.20;56.42
50684;BME280;36654;45.042;38.994;2023-10-08T05:33:08;100781.84;;;19.34;56.09
50684;BME280;36654;45.042;38.994;2023-10-08T05:35:51;100789.78;;;19.38;55.91
50684;BME280;36654;45.042;38.994;2023-10-08T05:38:22;100786.91;;;19.46;55.70
50684;BME280;36654;45.042;38.994;2023-10-08T05:41:13;100777.69;;;19.56;55.76
50684;BME280;36654;45.042;38.994;2023-10-08T05:43:59;100758.84;;;19.58;55.53
50684;BME280;36654;45.042;38.994;2023-10-08T05:46:49;100765.09;;;19.58;55.59
50684;BME280;36654;45.042;38.994;2023-10-08T05:49:32;100773.91;;;19.65;55.78
50684;BME280;36654;45.042;38.994;2023-10-08T05:51:58;100743.31;;;19.71;55.48
50684;BME280;36654;45.042;38.994;2023-10-08T05:54:30;100765.75;;;19.70;54.90
50684;BME280;36654;45.042;38.994;2023-10-08T05:57:01;100763.78;;;19.76;53.93
50684;BME280;36654;45.042;38.994;2023-10-08T05:59:41;100755.59;;;19.81;54.11
50684;BME280;36654;45.042;38.994;2023-10-08T06:02:27;100678.19;;;19.58;53.72
50684;BME280;36654;45.042;38.994;2023-10-08T06:05:02;100754.72;;;19.80;53.31
50684;BME280;36654;45.042;38.994;2023-10-08T06:07:50;100744.03;;;19.77;53.66
50684;BME280;36654;45.042;38.994;2023-10-08T06:10:29;100725.09;;;19.82;53.88
50684;BME280;36654;45.042;38.994;2023-10-08T06:12:55;100715.47;;;19.72;53.69
50684;BME280;36654;45.042;38.994;2023-10-08T06:15:50;100716.88;;;19.87;53.58
50684;BME280;36654;45.042;38.994;2023-10-08T06:18:19;100714.06;;;19.91;53.00
50684;BME280;36654;45.042;38.994;2023-10-08T06:20:46;100730.03;;;19.97;53.17
50684;BME280;36654;45.042;38.994;2023-10-08T06:23:12;100722.81;;;19.99;52.91
50684;BME280;36654;45.042;38.994;2023-10-08T06:25:41;100697.66;;;20.00;52.45
50684;BME280;36654;45.042;38.994;2023-10-08T06:28:15;100717.91;;;20.14;51.93
50684;BME280;36654;45.042;38.994;2023-10-08T06:30:45;100701.53;;;20.21;51.68
50684;BME280;36654;45.042;38.994;2023-10-08T06:33:11;100718.31;;;20.31;51.16
50684;BME280;36654;45.042;38.994;2023-10-08T06:35:36;100700.03;;;20.42;50.88
50684;BME280;36654;45.042;38.994;2023-10-08T06:38:02;100681.00;;;20.48;49.95
50684;BME280;36654;45.042;38.994;2023-10-08T06:40:40;100665.06;;;20.41;50.13
50684;BME280;36654;45.042;38.994;2023-10-08T06:43:08;100680.16;;;20.46;50.39
50684;BME280;36654;45.042;38.994;2023-10-08T06:45:47;100680.88;;;20.52;50.59
50684;BME280;36654;45.042;38.994;2023-10-08T06:48:20;100708.31;;;20.66;49.79
50684;BME280;36654;45.042;38.994;2023-10-08T06:50:51;100691.03;;;20.73;49.80
50684;BME280;36654;45.042;38.994;2023-10-08T06:53:22;100660.72;;;20.66;49.54
50684;BME280;36654;45.042;38.994;2023-10-08T06:55:48;100648.78;;;20.75;49.18
50684;BME280;36654;45.042;38.994;2023-10-08T06:58:22;100642.69;;;20.97;48.26
50684;BME280;36654;45.042;38.994;2023-10-08T07:00:48;100644.22;;;21.04;47.99
50684;BME280;36654;45.042;38.994;2023-10-08T07:03:15;100670.72;;;21.18;47.63
50684;BME280;36654;45.042;38.994;2023-10-08T07:05:45;100662.63;;;21.18;46.94
50684;BME280;36654;45.042;38.994;2023-10-08T07:08:22;100633.97;;;21.15;46.76
50684;BME280;36654;45.042;38.994;2023-10-08T07:10:53;100642.81;;;21.19;47.00
50684;BME280;36654;45.042;38.994;2023-10-08T07:13:19;100667.16;;;21.17;47.56
50684;BME280;36654;45.042;38.994;2023-10-08T07:15:50;100618.28;;;21.26;47.96
50684;BME280;36654;45.042;38.994;2023-10-08T07:18:17;100613.44;;;21.11;47.65
50684;BME280;36654;45.042;38.994;2023-10-08T07:20:54;100651.50;;;21.55;47.91
50684;BME280;36654;45.042;38.994;2023-10-08T07:23:23;100637.06;;;21.56;47.79
50684;BME280;36654;45.042;38.994;2023-10-08T07:25:56;100636.97;;;21.59;47.69
50684;BME280;36654;45.042;38.994;2023-10-08T07:28:30;100604.72;;;21.29;47.87
50684;BME280;36654;45.042;38.994;2023-10-08T07:30:56;100619.88;;;21.59;48.22
50684;BME280;36654;45.042;38.994;2023-10-08T07:33:23;100624.66;;;21.52;48.65
50684;BME280;36654;45.042;38.994;2023-10-08T07:35:51;100608.09;;;21.61;48.21
50684;BME280;36654;45.042;38.994;2023-10-08T07:38:25;100618.81;;;21.64;48.53
50684;BME280;36654;45.042;38.994;2023-10-08T07:40:53;100635.69;;;21.69;48.34
50684;BME280;36654;45.042;38.994;2023-10-08T07:43:20;100640.47;;;21.61;48.26
50684;BME280;36654;45.042;38.994;2023-10-08T07:45:46;100608.78;;;21.68;48.20
50684;BME280;36654;45.042;38.994;2023-10-08T07:48:12;100626.69;;;21.69;48.04
50684;BME280;36654;45.042;38.994;2023-10-08T07:50:45;100605.38;;;21.63;47.80
50684;BME280;36654;45.042;38.994;2023-10-08T07:53:12;100586.66;;;21.58;48.13
50684;BME280;36654;45.042;38.994;2023-10-08T07:55:47;100593.16;;;21.26;48.58
50684;BME280;36654;45.042;38.994;2023-10-08T07:58:17;100612.16;;;21.49;48.44
50684;BME280;36654;45.042;38.994;2023-10-08T08:00:44;100614.88;;;21.48;48.21
50684;BME280;36654;45.042;38.994;2023-10-08T08:03:20;100586.25;;;21.44;48.48
50684;BME280;36654;45.042;38.994;2023-10-08T08:05:47;100586.50;;;21.36;48.56
50684;BME280;36654;45.042;38.994;2023-10-08T08:08:14;100598.50;;;21.27;48.61
50684;BME280;36654;45.042;38.994;2023-10-08T08:10:44;100623.09;;;21.45;48.40
50684;BME280;36654;45.042;38.994;2023-10-08T08:13:10;100535.16;;;21.41;47.78
50684;BME280;36654;45.042;38.994;2023-10-08T08:15:36;100575.41;;;21.70;47.42
50684;BME280;36654;45.042;38.994;2023-10-08T08:18:07;100494.94;;;21.58;46.97
50684;BME280;36654;45.042;38.994;2023-10-08T08:20:35;100542.78;;;21.76;46.64
50684;BME280;36654;45.042;38.994;2023-10-08T08:23:05;100589.75;;;22.20;46.45
50684;BME280;36654;45.042;38.994;2023-10-08T08:25:38;100563.88;;;22.36;45.55
50684;BME280;36654;45.042;38.994;2023-10-08T08:28:22;100561.84;;;22.19;45.93
50684;BME280;36654;45.042;38.994;2023-10-08T08:30:50;100581.28;;;22.05;46.00
50684;BME280;36654;45.042;38.994;2023-10-08T08:33:18;100551.00;;;21.97;46.69
50684;BME280;36654;45.042;38.994;2023-10-08T08:36:00;100550.75;;;22.03;46.65
50684;BME280;36654;45.042;38.994;2023-10-08T08:38:27;100597.34;;;22.08;46.78
50684;BME280;36654;45.042;38.994;2023-10-08T08:41:06;100575.75;;;22.08;46.78
50684;BME280;36654;45.042;38.994;2023-10-08T08:43:34;100559.72;;;22.04;47.11
50684;BME280;36654;45.042;38.994;2023-10-08T08:46:02;100576.75;;;22.06;47.20
50684;BME280;36654;45.042;38.994;2023-10-08T08:48:32;100580.28;;;22.08;47.26
50684;BME280;36654;45.042;38.994;2023-10-08T08:50:59;100531.53;;;21.89;47.39
50684;BME280;36654;45.042;38.994;2023-10-08T08:53:25;100579.53;;;22.04;47.57
50684;BME280;36654;45.042;38.994;2023-10-08T08:55:53;100547.13;;;22.04;48.17
50684;BME280;36654;45.042;38.994;2023-10-08T08:58:20;100536.69;;;21.95;47.79
50684;BME280;36654;45.042;38.994;2023-10-08T09:00:47;100542.63;;;22.05;47.47
50684;BME280;36654;45.042;38.994;2023-10-08T09:03:13;100546.31;;;21.79;47.51
50684;BME280;36654;45.042;38.994;2023-10-08T09:05:39;100537.16;;;21.83;47.58
50684;BME280;36654;45.042;38.994;2023-10-08T09:08:06;100558.97;;;21.76;47.94
50684;BME280;36654;45.042;38.994;2023-10-08T09:10:34;100507.72;;;21.76;47.68
50684;BME280;36654;45.042;38.994;2023-10-08T09:13:07;100519.31;;;21.79;47.38
50684;BME280;36654;45.042;38.994;2023-10-08T09:15:34;100525.44;;;21.84;47.56
50684;BME280;36654;45.042;38.994;2023-10-08T09:18:01;100431.00;;;21.84;46.80
50684;BME280;36654;45.042;38.994;2023-10-08T09:20:30;100527.78;;;21.93;46.83
50684;BME280;36654;45.042;38.994;2023-10-08T09:23:16;100511.44;;;21.96;46.10
50684;BME280;36654;45.042;38.994;2023-10-08T09:25:47;100512.41;;;21.95;46.11
50684;BME280;36654;45.042;38.994;2023-10-08T09:28:17;100521.19;;;22.00;45.94
50684;BME280;36654;45.042;38.994;2023-10-08T09:30:43;100509.44;;;22.01;45.46
50684;BME280;36654;45.042;38.994;2023-10-08T09:33:14;100527.28;;;22.05;45.58
50684;BME280;36654;45.042;38.994;2023-10-08T09:35:42;100484.94;;;22.07;44.90
50684;BME280;36654;45.042;38.994;2023-10-08T09:38:08;100524.16;;;22.16;45.35
50684;BME280;36654;45.042;38.994;2023-10-08T09:40:41;100511.66;;;22.13;45.31
50684;BME280;36654;45.042;38.994;2023-10-08T09:43:10;100499.81;;;22.17;45.14
50684;BME280;36654;45.042;38.994;2023-10-08T09:45:42;100483.47;;;22.22;45.19
50684;BME280;36654;45.042;38.994;2023-10-08T09:48:11;100471.16;;;22.13;45.14
50684;BME280;36654;45.042;38.994;2023-10-08T09:50:40;100456.63;;;22.17;45.34
50684;BME280;36654;45.042;38.994;2023-10-08T09:53:11;100453.88;;;22.19;45.18
50684;BME280;36654;45.042;38.994;2023-10-08T09:55:57;100433.25;;;22.16;44.93
50684;BME280;36654;45.042;38.994;2023-10-08T09:58:25;100467.78;;;22.08;44.70
50684;BME280;36654;45.042;38.994;2023-10-08T10:00:54;100478.75;;;22.04;44.76
50684;BME280;36654;45.042;38.994;2023-10-08T10:03:19;100485.84;;;22.06;44.99
50684;BME280;36654;45.042;38.994;2023-10-08T10:05:48;100487.63;;;22.07;45.44
50684;BME280;36654;45.042;38.994;2023-10-08T10:08:17;100447.31;;;22.03;45.28
50684;BME280;36654;45.042;38.994;2023-10-08T10:10:43;100434.63;;;21.83;45.71
50684;BME280;36654;45.042;38.994;2023-10-08T10:13:16;100466.91;;;22.08;45.72
50684;BME280;36654;45.042;38.994;2023-10-08T10:15:43;100432.63;;;21.88;45.55
50684;BME280;36654;45.042;38.994;2023-10-08T10:18:13;100480.56;;;22.27;45.82
50684;BME280;36654;45.042;38.994;2023-10-08T10:20:51;100466.81;;;22.33;46.25
50684;BME280;36654;45.042;38.994;2023-10-08T10:31:35;100447.44;;;22.44;43.63
50684;BME280;36654;45.042;38.994;2023-10-08T10:34:08;100445.06;;;22.36;44.67
50684;BME280;36654;45.042;38.994;2023-10-08T10:36:38;100455.78;;;22.39;45.23
50684;BME280;36654;45.042;38.994;2023-10-08T10:39:07;100453.75;;;22.44;45.98
50684;BME280;36654;45.042;38.994;2023-10-08T10:41:47;100434.03;;;22.42;46.69
50684;BME280;36654;45.042;38.994;2023-10-08T10:44:14;100443.53;;;22.51;46.48
50684;BME280;36654;45.042;38.994;2023-10-08T10:46:42;100439.69;;;22.56;46.24
50684;BME280;36654;45.042;38.994;2023-10-08T10:49:09;100435.44;;;22.51;46.46
50684;BME280;36654;45.042;38.994;2023-10-08T10:51:50;100416.75;;;22.67;45.98
50684;BME280;36654;45.042;38.994;2023-10-08T10:54:25;100417.00;;;22.60;46.05
50684;BME280;36654;45.042;38.994;2023-10-08T10:56:52;100407.53;;;22.30;46.08
50684;BME280;36654;45.042;38.994;2023-10-08T10:59:34;100426.59;;;22.47;45.85
50684;BME280;36654;45.042;38.994;2023-10-08T11:02:03;100428.75;;;22.39;46.03
50684;BME280;36654;45.042;38.994;2023-10-08T11:04:47;100426.84;;;22.41;45.87
50684;BME280;36654;45.042;38.994;2023-10-08T11:07:18;100430.38;;;22.43;46.19
50684;BME280;36654;45.042;38.994;2023-10-08T11:09:47;100417.19;;;22.35;46.52
50684;BME280;36654;45.042;38.994;2023-10-08T11:12:14;100418.47;;;22.27;46.46
50684;BME280;36654;45.042;38.994;2023-10-08T11:14:46;100418.97;;;22.14;47.15
50684;BME280;36654;45.042;38.994;2023-10-08T11:17:16;100402.00;;;22.11;46.48
50684;BME280;36654;45.042;38.994;2023-10-08T11:19:45;100410.03;;;22.12;47.07
50684;BME280;36654;45.042;38.994;2023-10-08T11:22:14;100410.78;;;22.16;46.97
50684;BME280;36654;45.042;38.994;2023-10-08T11:24:45;100412.94;;;22.30;46.17
50684;BME280;36654;45.042;38.994;2023-10-08T11:27:16;100375.16;;;22.30;46.20
50684;BME280;36654;45.042;38.994;2023-10-08T11:29:47;100372.25;;;22.34;45.84
50684;BME280;36654;45.042;38.994;2023-10-08T11:32:15;100397.47;;;22.33;45.47
50684;BME280;36654;45.042;38.994;2023-10-08T11:34:46;100364.84;;;22.17;45.06
50684;BME280;36654;45.042;38.994;2023-10-08T11:37:25;100351.38;;;22.16;44.82
50684;BME280;36654;45.042;38.994;2023-10-08T11:39:51;100300.81;;;22.21;44.05
50684;BME280;36654;45.042;38.994;2023-10-08T11:42:18;100378.75;;;22.29;43.92
50684;BME280;36654;45.042;38.994;2023-10-08T11:44:59;100346.50;;;22.26;44.59
50684;BME280;36654;45.042;38.994;2023-10-08T11:47:25;100358.94;;;22.30;44.45
50684;BME280;36654;45.042;38.994;2023-10-08T11:49:57;100362.72;;;22.26;44.12
50684;BME280;36654;45.042;38.994;2023-10-08T11:52:38;100366.22;;;22.28;43.56
50684;BME280;36654;45.042;38.994;2023-10-08T11:55:11;100365.03;;;22.35;43.44
50684;BME280;36654;45.042;38.994;2023-10-08T11:57:48;100265.50;;;22.26;43.35
50684;BME280;36654;45.042;38.994;2023-10-08T12:00:15;100359.09;;;22.27;44.15
50684;BME280;36654;45.042;38.994;2023-10-08T12:02:48;100319.53;;;22.04;45.22
50684;BME280;36654;45.042;38.994;2023-10-08T12:05:14;100348.63;;;22.17;45.66
50684;BME280;36654;45.042;38.994;2023-10-08T12:07:53;100333.09;;;22.24;44.96
50684;BME280;36654;45.042;38.994;2023-10-08T12:10:23;100311.25;;;22.29;44.01
50684;BME280;36654;45.042;38.994;2023-10-08T12:12:53;100351.53;;;22.35;44.00
50684;BME280;36654;45.042;38.994;2023-10-08T12:15:20;100313.72;;;22.35;43.41
50684;BME280;36654;45.042;38.994;2023-10-08T12:17:50;100290.97;;;22.20;43.75
50684;BME280;36654;45.042;38.994;2023-10-08T12:20:40;100345.72;;;22.44;43.26
50684;BME280;36654;45.042;38.994;2023-10-08T12:23:12;100323.56;;;22.36;43.04
50684;BME280;36654;45.042;38.994;2023-10-08T12:25:58;100338.84;;;22.37;43.32
50684;BME280;36654;45.042;38.994;2023-10-08T12:28:26;100308.50;;;22.30;43.43
50684;BME280;36654;45.042;38.994;2023-10-08T12:30:53;100333.19;;;22.21;43.66
50684;BME280;36654;45.042;38.994;2023-10-08T12:33:19;100291.00;;;22.18;43.54
50684;BME280;36654;45.042;38.994;2023-10-08T12:35:46;100276.59;;;22.20;43.87
50684;BME280;36654;45.042;38.994;2023-10-08T12:38:13;100326.38;;;22.12;43.84
50684;BME280;36654;45.042;38.994;2023-10-08T12:40:40;100283.84;;;22.17;44.01
50684;BME280;36654;45.042;38.994;2023-10-08T12:43:24;100311.72;;;22.18;43.61
50684;BME280;36654;45.042;38.994;2023-10-08T12:45:53;100255.09;;;22.16;43.68
50684;BME280;36654;45.042;38.994;2023-10-08T12:48:24;100257.78;;;21.96;44.17
50684;BME280;36654;45.042;38.994;2023-10-08T12:50:52;100310.22;;;22.11;44.53
50684;BME280;36654;45.042;38.994;2023-10-08T12:53:25;100282.03;;;21.97;44.34
50684;BME280;36654;45.042;38.994;2023-10-08T12:56:05;100308.81;;;22.02;44.62
50684;BME280;36654;45.042;38.994;2023-10-08T12:58:32;100301.63;;;22.01;44.41
50684;BME280;36654;45.042;38.994;2023-10-08T13:01:04;100276.28;;;22.05;44.47
50684;BME280;36654;45.042;38.994;2023-10-08T13:03:32;100276.13;;;21.88;44.35
50684;BME280;36654;45.042;38.994;2023-10-08T13:05:58;100275.91;;;22.14;43.92
50684;BME280;36654;45.042;38.994;2023-10-08T13:08:32;100286.50;;;22.19;44.27
50684;BME280;36654;45.042;38.994;2023-10-08T13:11:01;100285.22;;;22.28;43.98
50684;BME280;36654;45.042;38.994;2023-10-08T13:13:30;100222.59;;;22.20;43.77